Weather at St Jean Airport

Public forecast

Using degrees Celsius for public forecast. Weather courtesy of forecast.io.

Closest aviation weather report (METAR) to St Jean Airport

Closest report is Montréal / Saint-Hubert Airport, 14.6 nm (27.0 km) NNW.

2024/05/20 07:00 (retrieved 15 minutes ago)

CYHU 200700Z AUTO 17006KT 9SM CLR 17/13 A2993 RMK SLP137 DENSITY ALT 300FT

Closest aviation forecast (TAF) to St Jean Airport

Closest forecast is Montréal / Saint-Hubert Airport, 14.6 nm (27.0 km) NNW.

2024/05/20 06:42 (retrieved 33 minutes ago)

TAF CYHU 200540Z 2006/2106 17007KT P6SM SKC FM201000 20008KT P6SM SCT060 FM201600 24012KT P6SM SCT200 BECMG 2022/2024 24008KT FM210500 23007KT P6SM BKN190 RMK FCST BASED ON AUTO OBS NXT FCST BY 201200Z